PWSweather.com
Personal Weather Stations
Station Observations
WXGLH1124
Southern Oaks, Indianapolis, IN 46217

Southern OaksIndianapolis, IN 46217

Lat: 39.65113, Lon: -86.16866

Elevation: 720

Station Type: Vantage Pro2

High Low Average
Temperature 33.0°F0.6°C 21.3°F-5.9°C 28.7°F-1.8°C
Dew Point 30.9°F-0.6°C 18.6°F-7.4°C 26.2°F-3.2°C
Winds 12.0 mph 19.3 kmh Calm Calm 4.0 mph WSW6.4 kmh WSW
Wind Gusts 16.0 mph25.7 kmh -- 7.0 mph11.3 kmh
Humidity 92% 88% 90%
Pressure 30.39 in1029.1 mb 30.20 in1022.7 mb -
Precipitation 0.00 in0.0 mm - -
Hour Temp Dew Point Humidity Winds Wind Gusts Pressure Precip Precip Rate Daily Precip Total
12:05 AM 20.3°F-6.5°C 17.1°F-8.3°C 87% Calm Calm -- 30.38 in1028.8 mb 0.00 in0.0 mm 0.00 in0.0 mm 0.00 in0.0 mm
12:09 AM 20.1°F-6.6°C 16.9°F-8.4°C 87% Calm Calm -- 30.38 in1028.8 mb 0.00 in0.0 mm 0.00 in0.0 mm 0.00 in0.0 mm
12:15 AM 19.9°F-6.7°C 16.7°F-8.5°C 87% Calm Calm -- 30.38 in1028.8 mb 0.00 in0.0 mm 0.00 in0.0 mm 0.00 in0.0 mm
12:19 AM 19.8°F-6.8°C 16.6°F-8.6°C 87% Calm Calm -- 30.38 in1028.8 mb 0.00 in0.0 mm 0.00 in0.0 mm 0.00 in0.0 mm
12:25 AM 19.9°F-6.7°C 16.9°F-8.4°C 88% Calm Calm -- 30.38 in1028.8 mb 0.00 in0.0 mm 0.00 in0.0 mm 0.00 in0.0 mm
12:30 AM 20.1°F-6.6°C 17.1°F-8.3°C 88% Calm Calm -- 30.38 in1028.8 mb 0.00 in0.0 mm 0.00 in0.0 mm 0.00 in0.0 mm
12:34 AM 20.3°F-6.5°C 17.3°F-8.2°C 88% Calm Calm -- 30.39 in1029.1 mb 0.00 in0.0 mm 0.00 in0.0 mm 0.00 in0.0 mm
12:40 AM 20.4°F-6.4°C 17.4°F-8.1°C 88% Calm Calm -- 30.39 in1029.1 mb 0.00 in0.0 mm 0.00 in0.0 mm 0.00 in0.0 mm
12:45 AM 20.4°F-6.4°C 17.4°F-8.1°C 88% Calm Calm -- 30.39 in1029.1 mb 0.00 in0.0 mm 0.00 in0.0 mm 0.00 in0.0 mm
12:50 AM 20.5°F-6.4°C 17.8°F-7.9°C 89% 2.0 mph NNW3.2 kmh NNW 4.0 mph6.4 kmh 30.39 in1029.1 mb 0.00 in0.0 mm 0.00 in0.0 mm 0.00 in0.0 mm
12:55 AM 20.9°F-6.2°C 18.2°F-7.7°C 89% Calm Calm 3.0 mph4.8 kmh 30.39 in1029.1 mb 0.00 in0.0 mm 0.00 in0.0 mm 0.00 in0.0 mm
01:00 AM 21.3°F-5.9°C 18.6°F-7.4°C 89% Calm Calm 1.0 mph1.6 kmh 30.39 in1029.1 mb 0.00 in0.0 mm 0.00 in0.0 mm 0.00 in0.0 mm
01:05 AM 21.5°F-5.8°C 18.8°F-7.3°C 89% Calm Calm -- 30.39 in1029.1 mb 0.00 in0.0 mm 0.00 in0.0 mm 0.00 in0.0 mm
01:10 AM 21.8°F-5.7°C 19.3°F-7.1°C 90% Calm Calm -- 30.39 in1029.1 mb 0.00 in0.0 mm 0.00 in0.0 mm 0.00 in0.0 mm
01:14 AM 22.0°F-5.6°C 19.3°F-7.1°C 89% Calm Calm -- 30.39 in1029.1 mb 0.00 in0.0 mm 0.00 in0.0 mm 0.00 in0.0 mm
01:20 AM 22.1°F-5.5°C 19.4°F-7.0°C 89% Calm Calm -- 30.38 in1028.8 mb 0.00 in0.0 mm 0.00 in0.0 mm 0.00 in0.0 mm
01:25 AM 22.2°F-5.4°C 19.5°F-6.9°C 89% Calm Calm -- 30.38 in1028.8 mb 0.00 in0.0 mm 0.00 in0.0 mm 0.00 in0.0 mm
01:30 AM 22.4°F-5.3°C 19.7°F-6.8°C 89% Calm Calm -- 30.38 in1028.8 mb 0.00 in0.0 mm 0.00 in0.0 mm 0.00 in0.0 mm
01:35 AM 22.5°F-5.3°C 20.0°F-6.7°C 90% Calm Calm -- 30.37 in1028.4 mb 0.00 in0.0 mm 0.00 in0.0 mm 0.00 in0.0 mm
01:40 AM 22.6°F-5.2°C 20.1°F-6.6°C 90% Calm Calm -- 30.37 in1028.4 mb 0.00 in0.0 mm 0.00 in0.0 mm 0.00 in0.0 mm
01:45 AM 22.7°F-5.2°C 20.0°F-6.7°C 89% Calm Calm -- 30.37 in1028.4 mb 0.00 in0.0 mm 0.00 in0.0 mm 0.00 in0.0 mm
01:49 AM 22.7°F-5.2°C 20.0°F-6.7°C 89% Calm Calm -- 30.37 in1028.4 mb 0.00 in0.0 mm 0.00 in0.0 mm 0.00 in0.0 mm
01:55 AM 22.8°F-5.1°C 20.1°F-6.6°C 89% Calm Calm -- 30.37 in1028.4 mb 0.00 in0.0 mm 0.00 in0.0 mm 0.00 in0.0 mm
02:00 AM 22.8°F-5.1°C 20.1°F-6.6°C 89% Calm Calm -- 30.36 in1028.1 mb 0.00 in0.0 mm 0.00 in0.0 mm 0.00 in0.0 mm
02:05 AM 22.9°F-5.1°C 20.2°F-6.6°C 89% Calm Calm -- 30.36 in1028.1 mb 0.00 in0.0 mm 0.00 in0.0 mm 0.00 in0.0 mm
02:09 AM 22.9°F-5.1°C 20.2°F-6.6°C 89% Calm Calm -- 30.36 in1028.1 mb 0.00 in0.0 mm 0.00 in0.0 mm 0.00 in0.0 mm
02:15 AM 22.9°F-5.1°C 20.2°F-6.6°C 89% Calm Calm -- 30.36 in1028.1 mb 0.00 in0.0 mm 0.00 in0.0 mm 0.00 in0.0 mm
02:20 AM 22.9°F-5.1°C 20.2°F-6.6°C 89% Calm Calm -- 30.36 in1028.1 mb 0.00 in0.0 mm 0.00 in0.0 mm 0.00 in0.0 mm
02:25 AM 22.9°F-5.1°C 20.2°F-6.6°C 89% Calm Calm -- 30.36 in1028.1 mb 0.00 in0.0 mm 0.00 in0.0 mm 0.00 in0.0 mm
02:30 AM 22.9°F-5.1°C 20.2°F-6.6°C 89% Calm Calm -- 30.35 in1027.8 mb 0.00 in0.0 mm 0.00 in0.0 mm 0.00 in0.0 mm
02:35 AM 22.9°F-5.1°C 20.2°F-6.6°C 89% Calm Calm -- 30.35 in1027.8 mb 0.00 in0.0 mm 0.00 in0.0 mm 0.00 in0.0 mm
02:40 AM 22.9°F-5.1°C 20.2°F-6.6°C 89% Calm Calm 3.0 mph4.8 kmh 30.35 in1027.8 mb 0.00 in0.0 mm 0.00 in0.0 mm 0.00 in0.0 mm
02:45 AM 22.9°F-5.1°C 20.2°F-6.6°C 89% Calm Calm 2.0 mph3.2 kmh 30.35 in1027.8 mb 0.00 in0.0 mm 0.00 in0.0 mm 0.00 in0.0 mm
02:49 AM 22.9°F-5.1°C 20.2°F-6.6°C 89% Calm Calm 3.0 mph4.8 kmh 30.35 in1027.8 mb 0.00 in0.0 mm 0.00 in0.0 mm 0.00 in0.0 mm
02:55 AM 22.9°F-5.1°C 20.2°F-6.6°C 89% 2.0 mph W3.2 kmh W 2.0 mph3.2 kmh 30.35 in1027.8 mb 0.00 in0.0 mm 0.00 in0.0 mm 0.00 in0.0 mm
03:00 AM 23.0°F-5.0°C 20.3°F-6.5°C 89% 2.0 mph W3.2 kmh W 3.0 mph4.8 kmh 30.35 in1027.8 mb 0.00 in0.0 mm 0.00 in0.0 mm 0.00 in0.0 mm
03:05 AM 23.0°F-5.0°C 20.5°F-6.4°C 90% 1.0 mph W1.6 kmh W 2.0 mph3.2 kmh 30.35 in1027.8 mb 0.00 in0.0 mm 0.00 in0.0 mm 0.00 in0.0 mm
03:10 AM 23.1°F-4.9°C 20.6°F-6.3°C 90% Calm Calm 2.0 mph3.2 kmh 30.35 in1027.8 mb 0.00 in0.0 mm 0.00 in0.0 mm 0.00 in0.0 mm
03:15 AM 23.2°F-4.9°C 20.7°F-6.3°C 90% 3.0 mph W4.8 kmh W 3.0 mph4.8 kmh 30.35 in1027.8 mb 0.00 in0.0 mm 0.00 in0.0 mm 0.00 in0.0 mm
03:20 AM 23.3°F-4.8°C 20.8°F-6.2°C 90% Calm Calm 2.0 mph3.2 kmh 30.35 in1027.8 mb 0.00 in0.0 mm 0.00 in0.0 mm 0.00 in0.0 mm
03:25 AM 23.4°F-4.8°C 20.9°F-6.2°C 90% Calm Calm 4.0 mph6.4 kmh 30.35 in1027.8 mb 0.00 in0.0 mm 0.00 in0.0 mm 0.00 in0.0 mm
03:30 AM 23.5°F-4.7°C 21.0°F-6.1°C 90% 2.0 mph W3.2 kmh W 2.0 mph3.2 kmh 30.35 in1027.8 mb 0.00 in0.0 mm 0.00 in0.0 mm 0.00 in0.0 mm
03:35 AM 23.6°F-4.7°C 21.1°F-6.1°C 90% Calm Calm -- 30.35 in1027.8 mb 0.00 in0.0 mm 0.00 in0.0 mm 0.00 in0.0 mm
03:40 AM 23.7°F-4.6°C 21.2°F-6.0°C 90% Calm Calm 2.0 mph3.2 kmh 30.36 in1028.1 mb 0.00 in0.0 mm 0.00 in0.0 mm 0.00 in0.0 mm
03:45 AM 23.8°F-4.6°C 21.3°F-5.9°C 90% Calm Calm -- 30.36 in1028.1 mb 0.00 in0.0 mm 0.00 in0.0 mm 0.00 in0.0 mm
03:50 AM 23.8°F-4.6°C 21.3°F-5.9°C 90% 2.0 mph W3.2 kmh W 2.0 mph3.2 kmh 30.36 in1028.1 mb 0.00 in0.0 mm 0.00 in0.0 mm 0.00 in0.0 mm
03:55 AM 23.9°F-4.5°C 21.4°F-5.9°C 90% Calm Calm 2.0 mph3.2 kmh 30.36 in1028.1 mb 0.00 in0.0 mm 0.00 in0.0 mm 0.00 in0.0 mm
04:00 AM 23.9°F-4.5°C 21.4°F-5.9°C 90% 2.0 mph W3.2 kmh W 2.0 mph3.2 kmh 30.36 in1028.1 mb 0.00 in0.0 mm 0.00 in0.0 mm 0.00 in0.0 mm
04:05 AM 24.0°F-4.4°C 21.5°F-5.8°C 90% Calm Calm 2.0 mph3.2 kmh 30.36 in1028.1 mb 0.00 in0.0 mm 0.00 in0.0 mm 0.00 in0.0 mm
04:09 AM 24.2°F-4.3°C 21.7°F-5.7°C 90% Calm Calm 3.0 mph4.8 kmh 30.36 in1028.1 mb 0.00 in0.0 mm 0.00 in0.0 mm 0.00 in0.0 mm
04:15 AM 24.4°F-4.2°C 21.9°F-5.6°C 90% Calm Calm 7.0 mph11.3 kmh 30.36 in1028.1 mb 0.00 in0.0 mm 0.00 in0.0 mm 0.00 in0.0 mm
04:20 AM 24.5°F-4.2°C 22.0°F-5.6°C 90% 3.0 mph WSW4.8 kmh WSW 3.0 mph4.8 kmh 30.36 in1028.1 mb 0.00 in0.0 mm 0.00 in0.0 mm 0.00 in0.0 mm
04:25 AM 24.7°F-4.1°C 22.2°F-5.4°C 90% 2.0 mph NW3.2 kmh NW 7.0 mph11.3 kmh 30.37 in1028.4 mb 0.00 in0.0 mm 0.00 in0.0 mm 0.00 in0.0 mm
04:30 AM 24.8°F-4.0°C 22.3°F-5.4°C 90% 3.0 mph NW4.8 kmh NW 5.0 mph8.0 kmh 30.37 in1028.4 mb 0.00 in0.0 mm 0.00 in0.0 mm 0.00 in0.0 mm
04:35 AM 24.9°F-3.9°C 22.4°F-5.3°C 90% 1.0 mph WSW1.6 kmh WSW 8.0 mph12.9 kmh 30.37 in1028.4 mb 0.00 in0.0 mm 0.00 in0.0 mm 0.00 in0.0 mm
04:40 AM 24.9°F-3.9°C 22.4°F-5.3°C 90% 3.0 mph WSW4.8 kmh WSW 4.0 mph6.4 kmh 30.37 in1028.4 mb 0.00 in0.0 mm 0.00 in0.0 mm 0.00 in0.0 mm
04:45 AM 25.0°F-3.9°C 22.5°F-5.3°C 90% Calm Calm 5.0 mph8.0 kmh 30.37 in1028.4 mb 0.00 in0.0 mm 0.00 in0.0 mm 0.00 in0.0 mm
04:50 AM 25.1°F-3.8°C 22.6°F-5.2°C 90% Calm Calm 2.0 mph3.2 kmh 30.37 in1028.4 mb 0.00 in0.0 mm 0.00 in0.0 mm 0.00 in0.0 mm
04:55 AM 25.1°F-3.8°C 22.6°F-5.2°C 90% 3.0 mph WSW4.8 kmh WSW 3.0 mph4.8 kmh 30.36 in1028.1 mb 0.00 in0.0 mm 0.00 in0.0 mm 0.00 in0.0 mm
05:00 AM 25.2°F-3.8°C 22.7°F-5.2°C 90% 1.0 mph WSW1.6 kmh WSW 3.0 mph4.8 kmh 30.36 in1028.1 mb 0.00 in0.0 mm 0.00 in0.0 mm 0.00 in0.0 mm
05:04 AM 25.2°F-3.8°C 22.7°F-5.2°C 90% 2.0 mph WSW3.2 kmh WSW 3.0 mph4.8 kmh 30.36 in1028.1 mb 0.00 in0.0 mm 0.00 in0.0 mm 0.00 in0.0 mm
05:09 AM 25.2°F-3.8°C 22.7°F-5.2°C 90% 1.0 mph WSW1.6 kmh WSW 3.0 mph4.8 kmh 30.36 in1028.1 mb 0.00 in0.0 mm 0.00 in0.0 mm 0.00 in0.0 mm
05:15 AM 25.6°F-3.6°C 23.1°F-4.9°C 90% Calm Calm 3.0 mph4.8 kmh 30.36 in1028.1 mb 0.00 in0.0 mm 0.00 in0.0 mm 0.00 in0.0 mm
05:20 AM 25.6°F-3.6°C 23.1°F-4.9°C 90% 2.0 mph WSW3.2 kmh WSW 3.0 mph4.8 kmh 30.35 in1027.8 mb 0.00 in0.0 mm 0.00 in0.0 mm 0.00 in0.0 mm
05:25 AM 25.5°F-3.6°C 23.0°F-5.0°C 90% 1.0 mph SW1.6 kmh SW 6.0 mph9.7 kmh 30.35 in1027.8 mb 0.00 in0.0 mm 0.00 in0.0 mm 0.00 in0.0 mm
05:30 AM 25.6°F-3.6°C 23.1°F-4.9°C 90% 1.0 mph SW1.6 kmh SW 5.0 mph8.0 kmh 30.35 in1027.8 mb 0.00 in0.0 mm 0.00 in0.0 mm 0.00 in0.0 mm
05:35 AM 25.7°F-3.5°C 23.2°F-4.9°C 90% 2.0 mph SW3.2 kmh SW 3.0 mph4.8 kmh 30.34 in1027.4 mb 0.00 in0.0 mm 0.00 in0.0 mm 0.00 in0.0 mm
05:40 AM 25.7°F-3.5°C 23.4°F-4.8°C 91% 2.0 mph SW3.2 kmh SW 5.0 mph8.0 kmh 30.34 in1027.4 mb 0.00 in0.0 mm 0.00 in0.0 mm 0.00 in0.0 mm
05:44 AM 25.8°F-3.4°C 23.5°F-4.7°C 91% 1.0 mph SW1.6 kmh SW 2.0 mph3.2 kmh 30.34 in1027.4 mb 0.00 in0.0 mm 0.00 in0.0 mm 0.00 in0.0 mm
05:50 AM 26.0°F-3.3°C 23.7°F-4.6°C 91% Calm Calm 3.0 mph4.8 kmh 30.34 in1027.4 mb 0.00 in0.0 mm 0.00 in0.0 mm 0.00 in0.0 mm
05:55 AM 25.9°F-3.4°C 23.6°F-4.7°C 91% Calm Calm 2.0 mph3.2 kmh 30.34 in1027.4 mb 0.00 in0.0 mm 0.00 in0.0 mm 0.00 in0.0 mm
06:00 AM 25.8°F-3.4°C 23.5°F-4.7°C 91% Calm Calm 2.0 mph3.2 kmh 30.34 in1027.4 mb 0.00 in0.0 mm 0.00 in0.0 mm 0.00 in0.0 mm
06:05 AM 25.7°F-3.5°C 23.4°F-4.8°C 91% 2.0 mph SW3.2 kmh SW 2.0 mph3.2 kmh 30.34 in1027.4 mb 0.00 in0.0 mm 0.00 in0.0 mm 0.00 in0.0 mm
06:10 AM 25.7°F-3.5°C 23.4°F-4.8°C 91% 3.0 mph SW4.8 kmh SW 4.0 mph6.4 kmh 30.34 in1027.4 mb 0.00 in0.0 mm 0.00 in0.0 mm 0.00 in0.0 mm
06:15 AM 25.8°F-3.4°C 23.5°F-4.7°C 91% 1.0 mph SW1.6 kmh SW 4.0 mph6.4 kmh 30.34 in1027.4 mb 0.00 in0.0 mm 0.00 in0.0 mm 0.00 in0.0 mm
06:20 AM 26.0°F-3.3°C 23.7°F-4.6°C 91% 5.0 mph WSW8.0 kmh WSW 7.0 mph11.3 kmh 30.34 in1027.4 mb 0.00 in0.0 mm 0.00 in0.0 mm 0.00 in0.0 mm
06:25 AM 26.1°F-3.3°C 23.8°F-4.6°C 91% 2.0 mph WSW3.2 kmh WSW 3.0 mph4.8 kmh 30.34 in1027.4 mb 0.00 in0.0 mm 0.00 in0.0 mm 0.00 in0.0 mm
06:30 AM 26.2°F-3.2°C 23.9°F-4.5°C 91% Calm Calm 6.0 mph9.7 kmh 30.34 in1027.4 mb 0.00 in0.0 mm 0.00 in0.0 mm 0.00 in0.0 mm
06:35 AM 26.3°F-3.2°C 24.0°F-4.4°C 91% 1.0 mph WSW1.6 kmh WSW 1.0 mph1.6 kmh 30.34 in1027.4 mb 0.00 in0.0 mm 0.00 in0.0 mm 0.00 in0.0 mm
06:40 AM 26.3°F-3.2°C 24.0°F-4.4°C 91% 2.0 mph WSW3.2 kmh WSW 3.0 mph4.8 kmh 30.34 in1027.4 mb 0.00 in0.0 mm 0.00 in0.0 mm 0.00 in0.0 mm
06:45 AM 26.4°F-3.1°C 24.1°F-4.4°C 91% 3.0 mph W4.8 kmh W 6.0 mph9.7 kmh 30.33 in1027.1 mb 0.00 in0.0 mm 0.00 in0.0 mm 0.00 in0.0 mm
06:50 AM 26.5°F-3.1°C 24.2°F-4.3°C 91% 4.0 mph NW6.4 kmh NW 7.0 mph11.3 kmh 30.33 in1027.1 mb 0.00 in0.0 mm 0.00 in0.0 mm 0.00 in0.0 mm
06:55 AM 26.6°F-3.0°C 24.3°F-4.3°C 91% 2.0 mph SW3.2 kmh SW 6.0 mph9.7 kmh 30.33 in1027.1 mb 0.00 in0.0 mm 0.00 in0.0 mm 0.00 in0.0 mm
07:00 AM 26.6°F-3.0°C 24.3°F-4.3°C 91% 1.0 mph WNW1.6 kmh WNW 2.0 mph3.2 kmh 30.34 in1027.4 mb 0.00 in0.0 mm 0.00 in0.0 mm 0.00 in0.0 mm
07:05 AM 26.6°F-3.0°C 24.3°F-4.3°C 91% Calm Calm 4.0 mph6.4 kmh 30.34 in1027.4 mb 0.00 in0.0 mm 0.00 in0.0 mm 0.00 in0.0 mm
07:09 AM 26.6°F-3.0°C 24.3°F-4.3°C 91% 1.0 mph W1.6 kmh W 4.0 mph6.4 kmh 30.34 in1027.4 mb 0.00 in0.0 mm 0.00 in0.0 mm 0.00 in0.0 mm
07:14 AM 26.7°F-2.9°C 24.4°F-4.2°C 91% 2.0 mph WNW3.2 kmh WNW 5.0 mph8.0 kmh 30.34 in1027.4 mb 0.00 in0.0 mm 0.00 in0.0 mm 0.00 in0.0 mm
07:20 AM 26.7°F-2.9°C 24.4°F-4.2°C 91% 2.0 mph WNW3.2 kmh WNW 10.0 mph16.1 kmh 30.34 in1027.4 mb 0.00 in0.0 mm 0.00 in0.0 mm 0.00 in0.0 mm
07:25 AM 26.8°F-2.9°C 24.5°F-4.2°C 91% 1.0 mph W1.6 kmh W 3.0 mph4.8 kmh 30.33 in1027.1 mb 0.00 in0.0 mm 0.00 in0.0 mm 0.00 in0.0 mm
07:29 AM 26.8°F-2.9°C 24.5°F-4.2°C 91% 4.0 mph NW6.4 kmh NW 4.0 mph6.4 kmh 30.33 in1027.1 mb 0.00 in0.0 mm 0.00 in0.0 mm 0.00 in0.0 mm
07:35 AM 26.8°F-2.9°C 24.5°F-4.2°C 91% 2.0 mph WNW3.2 kmh WNW 3.0 mph4.8 kmh 30.33 in1027.1 mb 0.00 in0.0 mm 0.00 in0.0 mm 0.00 in0.0 mm
07:40 AM 26.8°F-2.9°C 24.5°F-4.2°C 91% 3.0 mph WSW4.8 kmh WSW 4.0 mph6.4 kmh 30.33 in1027.1 mb 0.00 in0.0 mm 0.00 in0.0 mm 0.00 in0.0 mm
07:45 AM 26.9°F-2.8°C 24.6°F-4.1°C 91% 6.0 mph SW9.7 kmh SW 6.0 mph9.7 kmh 30.33 in1027.1 mb 0.00 in0.0 mm 0.00 in0.0 mm 0.00 in0.0 mm
07:50 AM 26.9°F-2.8°C 24.6°F-4.1°C 91% Calm Calm 7.0 mph11.3 kmh 30.33 in1027.1 mb 0.00 in0.0 mm 0.00 in0.0 mm 0.00 in0.0 mm
07:55 AM 26.9°F-2.8°C 24.6°F-4.1°C 91% 1.0 mph WNW1.6 kmh WNW 4.0 mph6.4 kmh 30.33 in1027.1 mb 0.00 in0.0 mm 0.00 in0.0 mm 0.00 in0.0 mm
07:59 AM 26.9°F-2.8°C 24.6°F-4.1°C 91% 4.0 mph WNW6.4 kmh WNW 4.0 mph6.4 kmh 30.34 in1027.4 mb 0.00 in0.0 mm 0.00 in0.0 mm 0.00 in0.0 mm
08:05 AM 27.0°F-2.8°C 24.7°F-4.1°C 91% Calm Calm 4.0 mph6.4 kmh 30.33 in1027.1 mb 0.00 in0.0 mm 0.00 in0.0 mm 0.00 in0.0 mm
08:10 AM 27.0°F-2.8°C 24.7°F-4.1°C 91% Calm Calm 5.0 mph8.0 kmh 30.33 in1027.1 mb 0.00 in0.0 mm 0.00 in0.0 mm 0.00 in0.0 mm
08:14 AM 27.0°F-2.8°C 24.7°F-4.1°C 91% 2.0 mph SW3.2 kmh SW 3.0 mph4.8 kmh 30.33 in1027.1 mb 0.00 in0.0 mm 0.00 in0.0 mm 0.00 in0.0 mm
08:19 AM 27.0°F-2.8°C 24.7°F-4.1°C 91% Calm Calm 6.0 mph9.7 kmh 30.33 in1027.1 mb 0.00 in0.0 mm 0.00 in0.0 mm 0.00 in0.0 mm
08:24 AM 27.1°F-2.7°C 24.8°F-4.0°C 91% 1.0 mph W1.6 kmh W 1.0 mph1.6 kmh 30.33 in1027.1 mb 0.00 in0.0 mm 0.00 in0.0 mm 0.00 in0.0 mm
08:30 AM 27.1°F-2.7°C 24.8°F-4.0°C 91% 1.0 mph WSW1.6 kmh WSW 3.0 mph4.8 kmh 30.34 in1027.4 mb 0.00 in0.0 mm 0.00 in0.0 mm 0.00 in0.0 mm
08:35 AM 27.1°F-2.7°C 24.8°F-4.0°C 91% 2.0 mph WNW3.2 kmh WNW 4.0 mph6.4 kmh 30.33 in1027.1 mb 0.00 in0.0 mm 0.00 in0.0 mm 0.00 in0.0 mm
08:40 AM 27.1°F-2.7°C 24.8°F-4.0°C 91% Calm Calm 3.0 mph4.8 kmh 30.33 in1027.1 mb 0.00 in0.0 mm 0.00 in0.0 mm 0.00 in0.0 mm
08:45 AM 27.1°F-2.7°C 24.8°F-4.0°C 91% 2.0 mph W3.2 kmh W 3.0 mph4.8 kmh 30.34 in1027.4 mb 0.00 in0.0 mm 0.00 in0.0 mm 0.00 in0.0 mm
08:50 AM 27.1°F-2.7°C 24.8°F-4.0°C 91% 2.0 mph SW3.2 kmh SW 10.0 mph16.1 kmh 30.33 in1027.1 mb 0.00 in0.0 mm 0.00 in0.0 mm 0.00 in0.0 mm
08:54 AM 27.2°F-2.7°C 24.9°F-3.9°C 91% Calm Calm 4.0 mph6.4 kmh 30.33 in1027.1 mb 0.00 in0.0 mm 0.00 in0.0 mm 0.00 in0.0 mm
09:00 AM 27.2°F-2.7°C 24.9°F-3.9°C 91% 3.0 mph WSW4.8 kmh WSW 8.0 mph12.9 kmh 30.33 in1027.1 mb 0.00 in0.0 mm 0.00 in0.0 mm 0.00 in0.0 mm
09:05 AM 27.1°F-2.7°C 24.8°F-4.0°C 91% Calm Calm 3.0 mph4.8 kmh 30.32 in1026.8 mb 0.00 in0.0 mm 0.00 in0.0 mm 0.00 in0.0 mm
09:10 AM 27.2°F-2.7°C 24.9°F-3.9°C 91% 2.0 mph SW3.2 kmh SW 4.0 mph6.4 kmh 30.32 in1026.8 mb 0.00 in0.0 mm 0.00 in0.0 mm 0.00 in0.0 mm
09:15 AM 27.2°F-2.7°C 24.9°F-3.9°C 91% 8.0 mph SW12.9 kmh SW 8.0 mph12.9 kmh 30.32 in1026.8 mb 0.00 in0.0 mm 0.00 in0.0 mm 0.00 in0.0 mm
09:20 AM 27.2°F-2.7°C 24.9°F-3.9°C 91% 6.0 mph SW9.7 kmh SW 6.0 mph9.7 kmh 30.32 in1026.8 mb 0.00 in0.0 mm 0.00 in0.0 mm 0.00 in0.0 mm
09:25 AM 27.2°F-2.7°C 24.9°F-3.9°C 91% Calm Calm 5.0 mph8.0 kmh 30.32 in1026.8 mb 0.00 in0.0 mm 0.00 in0.0 mm 0.00 in0.0 mm
09:30 AM 27.2°F-2.7°C 24.9°F-3.9°C 91% Calm Calm 5.0 mph8.0 kmh 30.32 in1026.8 mb 0.00 in0.0 mm 0.00 in0.0 mm 0.00 in0.0 mm
09:35 AM 27.2°F-2.7°C 24.9°F-3.9°C 91% 5.0 mph WSW8.0 kmh WSW 7.0 mph11.3 kmh 30.33 in1027.1 mb 0.00 in0.0 mm 0.00 in0.0 mm 0.00 in0.0 mm
09:40 AM 27.2°F-2.7°C 24.9°F-3.9°C 91% 4.0 mph SW6.4 kmh SW 5.0 mph8.0 kmh 30.33 in1027.1 mb 0.00 in0.0 mm 0.00 in0.0 mm 0.00 in0.0 mm
09:45 AM 27.2°F-2.7°C 24.9°F-3.9°C 91% 1.0 mph SW1.6 kmh SW 5.0 mph8.0 kmh 30.33 in1027.1 mb 0.00 in0.0 mm 0.00 in0.0 mm 0.00 in0.0 mm
09:50 AM 27.2°F-2.7°C 24.9°F-3.9°C 91% 1.0 mph SW1.6 kmh SW 4.0 mph6.4 kmh 30.33 in1027.1 mb 0.00 in0.0 mm 0.00 in0.0 mm 0.00 in0.0 mm
09:55 AM 27.2°F-2.7°C 24.9°F-3.9°C 91% 2.0 mph SW3.2 kmh SW 4.0 mph6.4 kmh 30.32 in1026.8 mb 0.00 in0.0 mm 0.00 in0.0 mm 0.00 in0.0 mm
10:00 AM 27.2°F-2.7°C 24.9°F-3.9°C 91% 3.0 mph SW4.8 kmh SW 7.0 mph11.3 kmh 30.33 in1027.1 mb 0.00 in0.0 mm 0.00 in0.0 mm 0.00 in0.0 mm
10:05 AM 27.3°F-2.6°C 25.0°F-3.9°C 91% 3.0 mph SW4.8 kmh SW 4.0 mph6.4 kmh 30.33 in1027.1 mb 0.00 in0.0 mm 0.00 in0.0 mm 0.00 in0.0 mm
10:10 AM 27.4°F-2.6°C 25.1°F-3.8°C 91% 4.0 mph SW6.4 kmh SW 5.0 mph8.0 kmh 30.33 in1027.1 mb 0.00 in0.0 mm 0.00 in0.0 mm 0.00 in0.0 mm
10:15 AM 27.4°F-2.6°C 25.1°F-3.8°C 91% 4.0 mph SW6.4 kmh SW 6.0 mph9.7 kmh 30.33 in1027.1 mb 0.00 in0.0 mm 0.00 in0.0 mm 0.00 in0.0 mm
10:20 AM 27.4°F-2.6°C 25.1°F-3.8°C 91% Calm Calm 3.0 mph4.8 kmh 30.34 in1027.4 mb 0.00 in0.0 mm 0.00 in0.0 mm 0.00 in0.0 mm
10:25 AM 27.5°F-2.5°C 25.2°F-3.8°C 91% 7.0 mph SW11.3 kmh SW 7.0 mph11.3 kmh 30.34 in1027.4 mb 0.00 in0.0 mm 0.00 in0.0 mm 0.00 in0.0 mm
10:30 AM 27.5°F-2.5°C 25.2°F-3.8°C 91% 5.0 mph SW8.0 kmh SW 6.0 mph9.7 kmh 30.34 in1027.4 mb 0.00 in0.0 mm 0.00 in0.0 mm 0.00 in0.0 mm
10:35 AM 27.6°F-2.4°C 25.3°F-3.7°C 91% 2.0 mph WSW3.2 kmh WSW 6.0 mph9.7 kmh 30.34 in1027.4 mb 0.00 in0.0 mm 0.00 in0.0 mm 0.00 in0.0 mm
10:40 AM 27.7°F-2.4°C 25.4°F-3.7°C 91% 7.0 mph SW11.3 kmh SW 10.0 mph16.1 kmh 30.35 in1027.8 mb 0.00 in0.0 mm 0.00 in0.0 mm 0.00 in0.0 mm
10:45 AM 27.7°F-2.4°C 25.4°F-3.7°C 91% 4.0 mph SW6.4 kmh SW 9.0 mph14.5 kmh 30.35 in1027.8 mb 0.00 in0.0 mm 0.00 in0.0 mm 0.00 in0.0 mm
10:50 AM 27.8°F-2.3°C 25.5°F-3.6°C 91% 7.0 mph SW11.3 kmh SW 7.0 mph11.3 kmh 30.35 in1027.8 mb 0.00 in0.0 mm 0.00 in0.0 mm 0.00 in0.0 mm
10:55 AM 27.8°F-2.3°C 25.5°F-3.6°C 91% 4.0 mph SW6.4 kmh SW 8.0 mph12.9 kmh 30.36 in1028.1 mb 0.00 in0.0 mm 0.00 in0.0 mm 0.00 in0.0 mm
11:00 AM 27.8°F-2.3°C 25.5°F-3.6°C 91% 5.0 mph SW8.0 kmh SW 5.0 mph8.0 kmh 30.36 in1028.1 mb 0.00 in0.0 mm 0.00 in0.0 mm 0.00 in0.0 mm
11:05 AM 27.8°F-2.3°C 25.5°F-3.6°C 91% 1.0 mph SW1.6 kmh SW 7.0 mph11.3 kmh 30.36 in1028.1 mb 0.00 in0.0 mm 0.00 in0.0 mm 0.00 in0.0 mm
11:10 AM 27.9°F-2.3°C 25.6°F-3.6°C 91% 2.0 mph WSW3.2 kmh WSW 7.0 mph11.3 kmh 30.36 in1028.1 mb 0.00 in0.0 mm 0.00 in0.0 mm 0.00 in0.0 mm
11:15 AM 27.9°F-2.3°C 25.6°F-3.6°C 91% 3.0 mph SW4.8 kmh SW 4.0 mph6.4 kmh 30.36 in1028.1 mb 0.00 in0.0 mm 0.00 in0.0 mm 0.00 in0.0 mm
11:20 AM 27.9°F-2.3°C 25.6°F-3.6°C 91% 3.0 mph SW4.8 kmh SW 7.0 mph11.3 kmh 30.36 in1028.1 mb 0.00 in0.0 mm 0.00 in0.0 mm 0.00 in0.0 mm
11:25 AM 28.0°F-2.2°C 25.7°F-3.5°C 91% 3.0 mph SW4.8 kmh SW 4.0 mph6.4 kmh 30.36 in1028.1 mb 0.00 in0.0 mm 0.00 in0.0 mm 0.00 in0.0 mm
11:30 AM 28.0°F-2.2°C 25.7°F-3.5°C 91% 4.0 mph SW6.4 kmh SW 8.0 mph12.9 kmh 30.36 in1028.1 mb 0.00 in0.0 mm 0.00 in0.0 mm 0.00 in0.0 mm
11:35 AM 28.1°F-2.2°C 25.8°F-3.4°C 91% 2.0 mph SW3.2 kmh SW 6.0 mph9.7 kmh 30.36 in1028.1 mb 0.00 in0.0 mm 0.00 in0.0 mm 0.00 in0.0 mm
11:40 AM 28.1°F-2.2°C 25.8°F-3.4°C 91% 4.0 mph SW6.4 kmh SW 7.0 mph11.3 kmh 30.36 in1028.1 mb 0.00 in0.0 mm 0.00 in0.0 mm 0.00 in0.0 mm
11:45 AM 28.3°F-2.1°C 26.0°F-3.3°C 91% 4.0 mph SW6.4 kmh SW 4.0 mph6.4 kmh 30.37 in1028.4 mb 0.00 in0.0 mm 0.00 in0.0 mm 0.00 in0.0 mm
11:50 AM 28.3°F-2.1°C 26.0°F-3.3°C 91% 2.0 mph SW3.2 kmh SW 6.0 mph9.7 kmh 30.37 in1028.4 mb 0.00 in0.0 mm 0.00 in0.0 mm 0.00 in0.0 mm
11:55 AM 28.4°F-2.0°C 26.1°F-3.3°C 91% 1.0 mph SSW1.6 kmh SSW 8.0 mph12.9 kmh 30.37 in1028.4 mb 0.00 in0.0 mm 0.00 in0.0 mm 0.00 in0.0 mm
12:00 PM 28.4°F-2.0°C 26.1°F-3.3°C 91% 8.0 mph WSW12.9 kmh WSW 8.0 mph12.9 kmh 30.36 in1028.1 mb 0.00 in0.0 mm 0.00 in0.0 mm 0.00 in0.0 mm
12:05 PM 28.5°F-1.9°C 26.2°F-3.2°C 91% 6.0 mph SW9.7 kmh SW 10.0 mph16.1 kmh 30.36 in1028.1 mb 0.00 in0.0 mm 0.00 in0.0 mm 0.00 in0.0 mm
12:10 PM 28.5°F-1.9°C 26.2°F-3.2°C 91% 4.0 mph SW6.4 kmh SW 6.0 mph9.7 kmh 30.36 in1028.1 mb 0.00 in0.0 mm 0.00 in0.0 mm 0.00 in0.0 mm
12:15 PM 28.6°F-1.9°C 26.3°F-3.2°C 91% 7.0 mph SW11.3 kmh SW 7.0 mph11.3 kmh 30.36 in1028.1 mb 0.00 in0.0 mm 0.00 in0.0 mm 0.00 in0.0 mm
12:20 PM 28.6°F-1.9°C 26.3°F-3.2°C 91% 4.0 mph SW6.4 kmh SW 7.0 mph11.3 kmh 30.35 in1027.8 mb 0.00 in0.0 mm 0.00 in0.0 mm 0.00 in0.0 mm
12:24 PM 28.7°F-1.8°C 26.4°F-3.1°C 91% 6.0 mph SW9.7 kmh SW 6.0 mph9.7 kmh 30.35 in1027.8 mb 0.00 in0.0 mm 0.00 in0.0 mm 0.00 in0.0 mm
12:30 PM 28.7°F-1.8°C 26.4°F-3.1°C 91% 4.0 mph SW6.4 kmh SW 5.0 mph8.0 kmh 30.35 in1027.8 mb 0.00 in0.0 mm 0.00 in0.0 mm 0.00 in0.0 mm
12:35 PM 28.8°F-1.8°C 26.5°F-3.1°C 91% 5.0 mph SW8.0 kmh SW 5.0 mph8.0 kmh 30.35 in1027.8 mb 0.00 in0.0 mm 0.00 in0.0 mm 0.00 in0.0 mm
12:40 PM 28.9°F-1.7°C 26.6°F-3.0°C 91% 5.0 mph SW8.0 kmh SW 7.0 mph11.3 kmh 30.34 in1027.4 mb 0.00 in0.0 mm 0.00 in0.0 mm 0.00 in0.0 mm
12:45 PM 28.9°F-1.7°C 26.6°F-3.0°C 91% 2.0 mph SW3.2 kmh SW 4.0 mph6.4 kmh 30.34 in1027.4 mb 0.00 in0.0 mm 0.00 in0.0 mm 0.00 in0.0 mm
12:50 PM 29.0°F-1.7°C 26.7°F-2.9°C 91% 3.0 mph SW4.8 kmh SW 5.0 mph8.0 kmh 30.34 in1027.4 mb 0.00 in0.0 mm 0.00 in0.0 mm 0.00 in0.0 mm
12:55 PM 29.1°F-1.6°C 26.8°F-2.9°C 91% Calm Calm 6.0 mph9.7 kmh 30.34 in1027.4 mb 0.00 in0.0 mm 0.00 in0.0 mm 0.00 in0.0 mm
01:00 PM 29.2°F-1.6°C 26.9°F-2.8°C 91% 4.0 mph SW6.4 kmh SW 6.0 mph9.7 kmh 30.34 in1027.4 mb 0.00 in0.0 mm 0.00 in0.0 mm 0.00 in0.0 mm
01:05 PM 29.3°F-1.5°C 27.0°F-2.8°C 91% 4.0 mph SW6.4 kmh SW 6.0 mph9.7 kmh 30.33 in1027.1 mb 0.00 in0.0 mm 0.00 in0.0 mm 0.00 in0.0 mm
01:10 PM 29.4°F-1.4°C 27.1°F-2.7°C 91% 3.0 mph SW4.8 kmh SW 7.0 mph11.3 kmh 30.33 in1027.1 mb 0.00 in0.0 mm 0.00 in0.0 mm 0.00 in0.0 mm
01:14 PM 29.4°F-1.4°C 27.1°F-2.7°C 91% 3.0 mph W4.8 kmh W 7.0 mph11.3 kmh 30.33 in1027.1 mb 0.00 in0.0 mm 0.00 in0.0 mm 0.00 in0.0 mm
01:20 PM 29.5°F-1.4°C 26.9°F-2.8°C 90% 4.0 mph WSW6.4 kmh WSW 6.0 mph9.7 kmh 30.32 in1026.8 mb 0.00 in0.0 mm 0.00 in0.0 mm 0.00 in0.0 mm
01:25 PM 29.6°F-1.3°C 27.0°F-2.8°C 90% 6.0 mph SSW9.7 kmh SSW 7.0 mph11.3 kmh 30.32 in1026.8 mb 0.00 in0.0 mm 0.00 in0.0 mm 0.00 in0.0 mm
01:30 PM 29.8°F-1.2°C 27.2°F-2.7°C 90% 7.0 mph SW11.3 kmh SW 7.0 mph11.3 kmh 30.32 in1026.8 mb 0.00 in0.0 mm 0.00 in0.0 mm 0.00 in0.0 mm
01:35 PM 29.8°F-1.2°C 27.2°F-2.7°C 90% 5.0 mph SW8.0 kmh SW 9.0 mph14.5 kmh 30.32 in1026.8 mb 0.00 in0.0 mm 0.00 in0.0 mm 0.00 in0.0 mm
01:40 PM 29.8°F-1.2°C 27.2°F-2.7°C 90% 3.0 mph WSW4.8 kmh WSW 6.0 mph9.7 kmh 30.32 in1026.8 mb 0.00 in0.0 mm 0.00 in0.0 mm 0.00 in0.0 mm
01:44 PM 29.9°F-1.2°C 27.3°F-2.6°C 90% 5.0 mph SW8.0 kmh SW 5.0 mph8.0 kmh 30.31 in1026.4 mb 0.00 in0.0 mm 0.00 in0.0 mm 0.00 in0.0 mm
01:50 PM 30.0°F-1.1°C 27.4°F-2.6°C 90% 6.0 mph SW9.7 kmh SW 8.0 mph12.9 kmh 30.31 in1026.4 mb 0.00 in0.0 mm 0.00 in0.0 mm 0.00 in0.0 mm
01:55 PM 30.1°F-1.1°C 27.5°F-2.5°C 90% 4.0 mph SW6.4 kmh SW 9.0 mph14.5 kmh 30.31 in1026.4 mb 0.00 in0.0 mm 0.00 in0.0 mm 0.00 in0.0 mm
02:00 PM 30.1°F-1.1°C 27.3°F-2.6°C 89% 10.0 mph SW16.1 kmh SW 10.0 mph16.1 kmh 30.31 in1026.4 mb 0.00 in0.0 mm 0.00 in0.0 mm 0.00 in0.0 mm
02:05 PM 30.3°F-0.9°C 27.7°F-2.4°C 90% 1.0 mph W1.6 kmh W 7.0 mph11.3 kmh 30.31 in1026.4 mb 0.00 in0.0 mm 0.00 in0.0 mm 0.00 in0.0 mm
02:10 PM 30.3°F-0.9°C 27.5°F-2.5°C 89% 3.0 mph SW4.8 kmh SW 12.0 mph19.3 kmh 30.30 in1026.1 mb 0.00 in0.0 mm 0.00 in0.0 mm 0.00 in0.0 mm
02:15 PM 30.5°F-0.8°C 27.7°F-2.4°C 89% Calm Calm 4.0 mph6.4 kmh 30.30 in1026.1 mb 0.00 in0.0 mm 0.00 in0.0 mm 0.00 in0.0 mm
02:20 PM 30.5°F-0.8°C 27.7°F-2.4°C 89% 4.0 mph SW6.4 kmh SW 11.0 mph17.7 kmh 30.30 in1026.1 mb 0.00 in0.0 mm 0.00 in0.0 mm 0.00 in0.0 mm
02:25 PM 30.6°F-0.8°C 27.8°F-2.3°C 89% 5.0 mph SW8.0 kmh SW 7.0 mph11.3 kmh 30.29 in1025.7 mb 0.00 in0.0 mm 0.00 in0.0 mm 0.00 in0.0 mm
02:30 PM 30.7°F-0.7°C 27.9°F-2.3°C 89% 4.0 mph SW6.4 kmh SW 7.0 mph11.3 kmh 30.29 in1025.7 mb 0.00 in0.0 mm 0.00 in0.0 mm 0.00 in0.0 mm
02:35 PM 30.8°F-0.7°C 28.0°F-2.2°C 89% 4.0 mph W6.4 kmh W 8.0 mph12.9 kmh 30.29 in1025.7 mb 0.00 in0.0 mm 0.00 in0.0 mm 0.00 in0.0 mm
02:40 PM 30.9°F-0.6°C 28.1°F-2.2°C 89% 2.0 mph SW3.2 kmh SW 6.0 mph9.7 kmh 30.28 in1025.4 mb 0.00 in0.0 mm 0.00 in0.0 mm 0.00 in0.0 mm
02:45 PM 31.0°F-0.6°C 28.1°F-2.2°C 89% 3.0 mph WSW4.8 kmh WSW 5.0 mph8.0 kmh 30.28 in1025.4 mb 0.00 in0.0 mm 0.00 in0.0 mm 0.00 in0.0 mm
02:50 PM 30.9°F-0.6°C 27.8°F-2.3°C 88% 7.0 mph SW11.3 kmh SW 9.0 mph14.5 kmh 30.28 in1025.4 mb 0.00 in0.0 mm 0.00 in0.0 mm 0.00 in0.0 mm
02:55 PM 31.0°F-0.6°C 27.9°F-2.3°C 88% 5.0 mph SW8.0 kmh SW 6.0 mph9.7 kmh 30.28 in1025.4 mb 0.00 in0.0 mm 0.00 in0.0 mm 0.00 in0.0 mm
03:00 PM 31.0°F-0.6°C 27.9°F-2.3°C 88% 5.0 mph SW8.0 kmh SW 7.0 mph11.3 kmh 30.27 in1025.1 mb 0.00 in0.0 mm 0.00 in0.0 mm 0.00 in0.0 mm
03:04 PM 31.1°F-0.5°C 28.0°F-2.2°C 88% 9.0 mph WSW14.5 kmh WSW 9.0 mph14.5 kmh 30.27 in1025.1 mb 0.00 in0.0 mm 0.00 in0.0 mm 0.00 in0.0 mm
03:10 PM 31.0°F-0.6°C 27.9°F-2.3°C 88% 6.0 mph SW9.7 kmh SW 8.0 mph12.9 kmh 30.27 in1025.1 mb 0.00 in0.0 mm 0.00 in0.0 mm 0.00 in0.0 mm
03:15 PM 31.0°F-0.6°C 27.9°F-2.3°C 88% 6.0 mph SW9.7 kmh SW 7.0 mph11.3 kmh 30.26 in1024.7 mb 0.00 in0.0 mm 0.00 in0.0 mm 0.00 in0.0 mm
03:20 PM 31.0°F-0.6°C 27.9°F-2.3°C 88% 3.0 mph SW4.8 kmh SW 8.0 mph12.9 kmh 30.26 in1024.7 mb 0.00 in0.0 mm 0.00 in0.0 mm 0.00 in0.0 mm
03:25 PM 31.0°F-0.6°C 27.9°F-2.3°C 88% 2.0 mph SW3.2 kmh SW 12.0 mph19.3 kmh 30.26 in1024.7 mb 0.00 in0.0 mm 0.00 in0.0 mm 0.00 in0.0 mm
03:30 PM 31.1°F-0.5°C 28.0°F-2.2°C 88% 6.0 mph WSW9.7 kmh WSW 11.0 mph17.7 kmh 30.26 in1024.7 mb 0.00 in0.0 mm 0.00 in0.0 mm 0.00 in0.0 mm
03:35 PM 31.1°F-0.5°C 28.2°F-2.1°C 89% 11.0 mph WSW17.7 kmh WSW 13.0 mph20.9 kmh 30.26 in1024.7 mb 0.00 in0.0 mm 0.00 in0.0 mm 0.00 in0.0 mm
03:40 PM 31.0°F-0.6°C 27.9°F-2.3°C 88% 7.0 mph SW11.3 kmh SW 11.0 mph17.7 kmh 30.26 in1024.7 mb 0.00 in0.0 mm 0.00 in0.0 mm 0.00 in0.0 mm
03:45 PM 31.0°F-0.6°C 28.1°F-2.2°C 89% 8.0 mph WSW12.9 kmh WSW 8.0 mph12.9 kmh 30.26 in1024.7 mb 0.00 in0.0 mm 0.00 in0.0 mm 0.00 in0.0 mm
03:50 PM 31.0°F-0.6°C 28.1°F-2.2°C 89% 8.0 mph SW12.9 kmh SW 11.0 mph17.7 kmh 30.25 in1024.4 mb 0.00 in0.0 mm 0.00 in0.0 mm 0.00 in0.0 mm
03:55 PM 31.1°F-0.5°C 28.2°F-2.1°C 89% 8.0 mph SW12.9 kmh SW 10.0 mph16.1 kmh 30.25 in1024.4 mb 0.00 in0.0 mm 0.00 in0.0 mm 0.00 in0.0 mm
03:59 PM 31.1°F-0.5°C 28.2°F-2.1°C 89% 4.0 mph SW6.4 kmh SW 11.0 mph17.7 kmh 30.25 in1024.4 mb 0.00 in0.0 mm 0.00 in0.0 mm 0.00 in0.0 mm
04:05 PM 31.3°F-0.4°C 28.4°F-2.0°C 89% 6.0 mph SW9.7 kmh SW 6.0 mph9.7 kmh 30.25 in1024.4 mb 0.00 in0.0 mm 0.00 in0.0 mm 0.00 in0.0 mm
04:10 PM 31.2°F-0.4°C 28.3°F-2.1°C 89% 5.0 mph SW8.0 kmh SW 13.0 mph20.9 kmh 30.25 in1024.4 mb 0.00 in0.0 mm 0.00 in0.0 mm 0.00 in0.0 mm
04:15 PM 31.2°F-0.4°C 28.3°F-2.1°C 89% 6.0 mph SW9.7 kmh SW 11.0 mph17.7 kmh 30.25 in1024.4 mb 0.00 in0.0 mm 0.00 in0.0 mm 0.00 in0.0 mm
04:20 PM 31.2°F-0.4°C 28.3°F-2.1°C 89% 5.0 mph SW8.0 kmh SW 9.0 mph14.5 kmh 30.25 in1024.4 mb 0.00 in0.0 mm 0.00 in0.0 mm 0.00 in0.0 mm
04:25 PM 31.2°F-0.4°C 28.3°F-2.1°C 89% 2.0 mph SW3.2 kmh SW 7.0 mph11.3 kmh 30.25 in1024.4 mb 0.00 in0.0 mm 0.00 in0.0 mm 0.00 in0.0 mm
04:30 PM 31.3°F-0.4°C 28.4°F-2.0°C 89% 5.0 mph SW8.0 kmh SW 8.0 mph12.9 kmh 30.25 in1024.4 mb 0.00 in0.0 mm 0.00 in0.0 mm 0.00 in0.0 mm
04:35 PM 31.4°F-0.3°C 28.5°F-1.9°C 89% 3.0 mph SW4.8 kmh SW 7.0 mph11.3 kmh 30.25 in1024.4 mb 0.00 in0.0 mm 0.00 in0.0 mm 0.00 in0.0 mm
04:39 PM 31.4°F-0.3°C 28.5°F-1.9°C 89% 4.0 mph SW6.4 kmh SW 9.0 mph14.5 kmh 30.25 in1024.4 mb 0.00 in0.0 mm 0.00 in0.0 mm 0.00 in0.0 mm
04:45 PM 31.4°F-0.3°C 28.5°F-1.9°C 89% 2.0 mph SW3.2 kmh SW 6.0 mph9.7 kmh 30.25 in1024.4 mb 0.00 in0.0 mm 0.00 in0.0 mm 0.00 in0.0 mm
04:50 PM 31.4°F-0.3°C 28.5°F-1.9°C 89% 5.0 mph SW8.0 kmh SW 11.0 mph17.7 kmh 30.25 in1024.4 mb 0.00 in0.0 mm 0.00 in0.0 mm 0.00 in0.0 mm
04:55 PM 31.4°F-0.3°C 28.5°F-1.9°C 89% 7.0 mph SW11.3 kmh SW 10.0 mph16.1 kmh 30.25 in1024.4 mb 0.00 in0.0 mm 0.00 in0.0 mm 0.00 in0.0 mm
05:00 PM 31.5°F-0.3°C 28.6°F-1.9°C 89% 6.0 mph SW9.7 kmh SW 9.0 mph14.5 kmh 30.25 in1024.4 mb 0.00 in0.0 mm 0.00 in0.0 mm 0.00 in0.0 mm
05:05 PM 31.6°F-0.2°C 28.7°F-1.8°C 89% 12.0 mph SW19.3 kmh SW 12.0 mph19.3 kmh 30.25 in1024.4 mb 0.00 in0.0 mm 0.00 in0.0 mm 0.00 in0.0 mm
05:10 PM 31.7°F-0.2°C 28.8°F-1.8°C 89% 5.0 mph SW8.0 kmh SW 10.0 mph16.1 kmh 30.25 in1024.4 mb 0.00 in0.0 mm 0.00 in0.0 mm 0.00 in0.0 mm
05:15 PM 31.7°F-0.2°C 28.8°F-1.8°C 89% 8.0 mph SW12.9 kmh SW 9.0 mph14.5 kmh 30.25 in1024.4 mb 0.00 in0.0 mm 0.00 in0.0 mm 0.00 in0.0 mm
05:20 PM 31.6°F-0.2°C 28.7°F-1.8°C 89% 4.0 mph WSW6.4 kmh WSW 6.0 mph9.7 kmh 30.24 in1024.0 mb 0.00 in0.0 mm 0.00 in0.0 mm 0.00 in0.0 mm
05:25 PM 31.6°F-0.2°C 28.7°F-1.8°C 89% 3.0 mph SW4.8 kmh SW 10.0 mph16.1 kmh 30.24 in1024.0 mb 0.00 in0.0 mm 0.00 in0.0 mm 0.00 in0.0 mm
05:30 PM 31.6°F-0.2°C 28.7°F-1.8°C 89% 8.0 mph WSW12.9 kmh WSW 12.0 mph19.3 kmh 30.24 in1024.0 mb 0.00 in0.0 mm 0.00 in0.0 mm 0.00 in0.0 mm
05:35 PM 31.6°F-0.2°C 28.7°F-1.8°C 89% 3.0 mph SW4.8 kmh SW 7.0 mph11.3 kmh 30.24 in1024.0 mb 0.00 in0.0 mm 0.00 in0.0 mm 0.00 in0.0 mm
05:40 PM 31.6°F-0.2°C 28.7°F-1.8°C 89% 7.0 mph SW11.3 kmh SW 11.0 mph17.7 kmh 30.24 in1024.0 mb 0.00 in0.0 mm 0.00 in0.0 mm 0.00 in0.0 mm
05:45 PM 31.7°F-0.2°C 28.8°F-1.8°C 89% 5.0 mph SW8.0 kmh SW 8.0 mph12.9 kmh 30.24 in1024.0 mb 0.00 in0.0 mm 0.00 in0.0 mm 0.00 in0.0 mm
05:50 PM 31.8°F-0.1°C 28.9°F-1.7°C 89% 2.0 mph WSW3.2 kmh WSW 6.0 mph9.7 kmh 30.24 in1024.0 mb 0.00 in0.0 mm 0.00 in0.0 mm 0.00 in0.0 mm
05:54 PM 31.7°F-0.2°C 28.8°F-1.8°C 89% 5.0 mph WSW8.0 kmh WSW 13.0 mph20.9 kmh 30.24 in1024.0 mb 0.00 in0.0 mm 0.00 in0.0 mm 0.00 in0.0 mm
06:00 PM 31.6°F-0.2°C 28.7°F-1.8°C 89% 7.0 mph SW11.3 kmh SW 13.0 mph20.9 kmh 30.24 in1024.0 mb 0.00 in0.0 mm 0.00 in0.0 mm 0.00 in0.0 mm
06:05 PM 31.7°F-0.2°C 28.8°F-1.8°C 89% 4.0 mph WSW6.4 kmh WSW 8.0 mph12.9 kmh 30.24 in1024.0 mb 0.00 in0.0 mm 0.00 in0.0 mm 0.00 in0.0 mm
06:09 PM 31.6°F-0.2°C 28.7°F-1.8°C 89% 12.0 mph WSW19.3 kmh WSW 16.0 mph25.7 kmh 30.24 in1024.0 mb 0.00 in0.0 mm 0.00 in0.0 mm 0.00 in0.0 mm
06:15 PM 31.6°F-0.2°C 28.7°F-1.8°C 89% 4.0 mph WSW6.4 kmh WSW 10.0 mph16.1 kmh 30.23 in1023.7 mb 0.00 in0.0 mm 0.00 in0.0 mm 0.00 in0.0 mm
06:20 PM 31.6°F-0.2°C 28.7°F-1.8°C 89% 4.0 mph WSW6.4 kmh WSW 9.0 mph14.5 kmh 30.22 in1023.4 mb 0.00 in0.0 mm 0.00 in0.0 mm 0.00 in0.0 mm
06:25 PM 31.7°F-0.2°C 28.8°F-1.8°C 89% 6.0 mph SW9.7 kmh SW 9.0 mph14.5 kmh 30.22 in1023.4 mb 0.00 in0.0 mm 0.00 in0.0 mm 0.00 in0.0 mm
06:30 PM 31.7°F-0.2°C 28.8°F-1.8°C 89% 4.0 mph SW6.4 kmh SW 8.0 mph12.9 kmh 30.22 in1023.4 mb 0.00 in0.0 mm 0.00 in0.0 mm 0.00 in0.0 mm
06:35 PM 31.7°F-0.2°C 28.8°F-1.8°C 89% 5.0 mph SW8.0 kmh SW 14.0 mph22.5 kmh 30.22 in1023.4 mb 0.00 in0.0 mm 0.00 in0.0 mm 0.00 in0.0 mm
06:39 PM 31.7°F-0.2°C 28.8°F-1.8°C 89% 5.0 mph WSW8.0 kmh WSW 8.0 mph12.9 kmh 30.22 in1023.4 mb 0.00 in0.0 mm 0.00 in0.0 mm 0.00 in0.0 mm
06:45 PM 31.7°F-0.2°C 28.8°F-1.8°C 89% 5.0 mph SW8.0 kmh SW 9.0 mph14.5 kmh 30.22 in1023.4 mb 0.00 in0.0 mm 0.00 in0.0 mm 0.00 in0.0 mm
06:49 PM 31.7°F-0.2°C 28.8°F-1.8°C 89% 5.0 mph SW8.0 kmh SW 6.0 mph9.7 kmh 30.22 in1023.4 mb 0.00 in0.0 mm 0.00 in0.0 mm 0.00 in0.0 mm
06:55 PM 31.7°F-0.2°C 28.8°F-1.8°C 89% 7.0 mph SW11.3 kmh SW 9.0 mph14.5 kmh 30.22 in1023.4 mb 0.00 in0.0 mm 0.00 in0.0 mm 0.00 in0.0 mm
07:00 PM 31.8°F-0.1°C 28.9°F-1.7°C 89% 6.0 mph SW9.7 kmh SW 10.0 mph16.1 kmh 30.22 in1023.4 mb 0.00 in0.0 mm 0.00 in0.0 mm 0.00 in0.0 mm
07:04 PM 31.9°F-0.1°C 29.0°F-1.7°C 89% 5.0 mph SW8.0 kmh SW 8.0 mph12.9 kmh 30.22 in1023.4 mb 0.00 in0.0 mm 0.00 in0.0 mm 0.00 in0.0 mm
07:10 PM 31.9°F-0.1°C 29.0°F-1.7°C 89% 8.0 mph SW12.9 kmh SW 13.0 mph20.9 kmh 30.22 in1023.4 mb 0.00 in0.0 mm 0.00 in0.0 mm 0.00 in0.0 mm
07:15 PM 31.9°F-0.1°C 29.0°F-1.7°C 89% 7.0 mph SW11.3 kmh SW 12.0 mph19.3 kmh 30.22 in1023.4 mb 0.00 in0.0 mm 0.00 in0.0 mm 0.00 in0.0 mm
07:20 PM 31.9°F-0.1°C 28.8°F-1.8°C 88% 4.0 mph SSW6.4 kmh SSW 10.0 mph16.1 kmh 30.22 in1023.4 mb 0.00 in0.0 mm 0.00 in0.0 mm 0.00 in0.0 mm
07:25 PM 31.9°F-0.1°C 29.0°F-1.7°C 89% 8.0 mph SW12.9 kmh SW 10.0 mph16.1 kmh 30.22 in1023.4 mb 0.00 in0.0 mm 0.00 in0.0 mm 0.00 in0.0 mm
07:29 PM 32.0°F0.0°C 29.1°F-1.6°C 89% 5.0 mph SW8.0 kmh SW 9.0 mph14.5 kmh 30.23 in1023.7 mb 0.00 in0.0 mm 0.00 in0.0 mm 0.00 in0.0 mm
07:35 PM 32.0°F0.0°C 29.1°F-1.6°C 89% 4.0 mph SW6.4 kmh SW 10.0 mph16.1 kmh 30.23 in1023.7 mb 0.00 in0.0 mm 0.00 in0.0 mm 0.00 in0.0 mm
07:40 PM 32.1°F0.1°C 29.2°F-1.6°C 89% 2.0 mph SW3.2 kmh SW 7.0 mph11.3 kmh 30.23 in1023.7 mb 0.00 in0.0 mm 0.00 in0.0 mm 0.00 in0.0 mm
07:45 PM 32.1°F0.1°C 29.2°F-1.6°C 89% 6.0 mph SW9.7 kmh SW 6.0 mph9.7 kmh 30.23 in1023.7 mb 0.00 in0.0 mm 0.00 in0.0 mm 0.00 in0.0 mm
07:50 PM 32.1°F0.1°C 29.2°F-1.6°C 89% 5.0 mph SW8.0 kmh SW 7.0 mph11.3 kmh 30.23 in1023.7 mb 0.00 in0.0 mm 0.00 in0.0 mm 0.00 in0.0 mm
07:55 PM 32.0°F0.0°C 29.1°F-1.6°C 89% 8.0 mph SW12.9 kmh SW 12.0 mph19.3 kmh 30.23 in1023.7 mb 0.00 in0.0 mm 0.00 in0.0 mm 0.00 in0.0 mm
08:00 PM 32.0°F0.0°C 29.1°F-1.6°C 89% 2.0 mph SW3.2 kmh SW 6.0 mph9.7 kmh 30.23 in1023.7 mb 0.00 in0.0 mm 0.00 in0.0 mm 0.00 in0.0 mm
08:05 PM 32.0°F0.0°C 29.1°F-1.6°C 89% 6.0 mph SW9.7 kmh SW 6.0 mph9.7 kmh 30.23 in1023.7 mb 0.00 in0.0 mm 0.00 in0.0 mm 0.00 in0.0 mm
08:10 PM 32.0°F0.0°C 29.1°F-1.6°C 89% 4.0 mph SW6.4 kmh SW 12.0 mph19.3 kmh 30.23 in1023.7 mb 0.00 in0.0 mm 0.00 in0.0 mm 0.00 in0.0 mm
08:15 PM 32.0°F0.0°C 29.1°F-1.6°C 89% 8.0 mph SW12.9 kmh SW 11.0 mph17.7 kmh 30.23 in1023.7 mb 0.00 in0.0 mm 0.00 in0.0 mm 0.00 in0.0 mm
08:19 PM 32.1°F0.1°C 29.2°F-1.6°C 89% 10.0 mph WSW16.1 kmh WSW 15.0 mph24.1 kmh 30.23 in1023.7 mb 0.00 in0.0 mm 0.00 in0.0 mm 0.00 in0.0 mm
08:25 PM 32.2°F0.1°C 29.3°F-1.5°C 89% 6.0 mph SW9.7 kmh SW 12.0 mph19.3 kmh 30.23 in1023.7 mb 0.00 in0.0 mm 0.00 in0.0 mm 0.00 in0.0 mm
08:30 PM 32.1°F0.1°C 29.2°F-1.6°C 89% 4.0 mph SW6.4 kmh SW 13.0 mph20.9 kmh 30.23 in1023.7 mb 0.00 in0.0 mm 0.00 in0.0 mm 0.00 in0.0 mm
08:34 PM 32.1°F0.1°C 29.2°F-1.6°C 89% 7.0 mph WSW11.3 kmh WSW 10.0 mph16.1 kmh 30.23 in1023.7 mb 0.00 in0.0 mm 0.00 in0.0 mm 0.00 in0.0 mm
08:40 PM 32.1°F0.1°C 29.2°F-1.6°C 89% 4.0 mph SW6.4 kmh SW 11.0 mph17.7 kmh 30.23 in1023.7 mb 0.00 in0.0 mm 0.00 in0.0 mm 0.00 in0.0 mm
08:45 PM 32.1°F0.1°C 29.2°F-1.6°C 89% 3.0 mph WSW4.8 kmh WSW 10.0 mph16.1 kmh 30.23 in1023.7 mb 0.00 in0.0 mm 0.00 in0.0 mm 0.00 in0.0 mm
08:49 PM 32.1°F0.1°C 29.2°F-1.6°C 89% 2.0 mph WSW3.2 kmh WSW 5.0 mph8.0 kmh 30.23 in1023.7 mb 0.00 in0.0 mm 0.00 in0.0 mm 0.00 in0.0 mm
08:55 PM 32.1°F0.1°C 29.2°F-1.6°C 89% 7.0 mph WSW11.3 kmh WSW 11.0 mph17.7 kmh 30.23 in1023.7 mb 0.00 in0.0 mm 0.00 in0.0 mm 0.00 in0.0 mm
08:59 PM 32.1°F0.1°C 29.2°F-1.6°C 89% 2.0 mph WSW3.2 kmh WSW 7.0 mph11.3 kmh 30.23 in1023.7 mb 0.00 in0.0 mm 0.00 in0.0 mm 0.00 in0.0 mm
09:05 PM 32.3°F0.2°C 29.7°F-1.3°C 90% 1.0 mph WSW1.6 kmh WSW 7.0 mph11.3 kmh 30.23 in1023.7 mb 0.00 in0.0 mm 0.00 in0.0 mm 0.00 in0.0 mm
09:10 PM 32.2°F0.1°C 29.3°F-1.5°C 89% 1.0 mph SW1.6 kmh SW 9.0 mph14.5 kmh 30.23 in1023.7 mb 0.00 in0.0 mm 0.00 in0.0 mm 0.00 in0.0 mm
09:15 PM 32.1°F0.1°C 29.5°F-1.4°C 90% 3.0 mph SW4.8 kmh SW 9.0 mph14.5 kmh 30.23 in1023.7 mb 0.00 in0.0 mm 0.00 in0.0 mm 0.00 in0.0 mm
09:20 PM 32.1°F0.1°C 29.5°F-1.4°C 90% 6.0 mph SW9.7 kmh SW 11.0 mph17.7 kmh 30.23 in1023.7 mb 0.00 in0.0 mm 0.00 in0.0 mm 0.00 in0.0 mm
09:25 PM 32.1°F0.1°C 29.5°F-1.4°C 90% 4.0 mph SW6.4 kmh SW 5.0 mph8.0 kmh 30.23 in1023.7 mb 0.00 in0.0 mm 0.00 in0.0 mm 0.00 in0.0 mm
09:29 PM 32.0°F0.0°C 29.4°F-1.4°C 90% 3.0 mph SW4.8 kmh SW 5.0 mph8.0 kmh 30.23 in1023.7 mb 0.00 in0.0 mm 0.00 in0.0 mm 0.00 in0.0 mm
09:35 PM 32.0°F0.0°C 29.4°F-1.4°C 90% 9.0 mph WSW14.5 kmh WSW 10.0 mph16.1 kmh 30.22 in1023.4 mb 0.00 in0.0 mm 0.00 in0.0 mm 0.00 in0.0 mm
09:39 PM 32.0°F0.0°C 29.4°F-1.4°C 90% 2.0 mph WSW3.2 kmh WSW 10.0 mph16.1 kmh 30.22 in1023.4 mb 0.00 in0.0 mm 0.00 in0.0 mm 0.00 in0.0 mm
09:45 PM 32.0°F0.0°C 29.7°F-1.3°C 91% 5.0 mph SW8.0 kmh SW 10.0 mph16.1 kmh 30.22 in1023.4 mb 0.00 in0.0 mm 0.00 in0.0 mm 0.00 in0.0 mm
09:50 PM 32.0°F0.0°C 29.7°F-1.3°C 91% 4.0 mph SW6.4 kmh SW 13.0 mph20.9 kmh 30.21 in1023.0 mb 0.00 in0.0 mm 0.00 in0.0 mm 0.00 in0.0 mm
09:55 PM 32.0°F0.0°C 29.7°F-1.3°C 91% 6.0 mph SW9.7 kmh SW 8.0 mph12.9 kmh 30.21 in1023.0 mb 0.00 in0.0 mm 0.00 in0.0 mm 0.00 in0.0 mm
10:00 PM 32.0°F0.0°C 29.7°F-1.3°C 91% 4.0 mph SW6.4 kmh SW 11.0 mph17.7 kmh 30.21 in1023.0 mb 0.00 in0.0 mm 0.00 in0.0 mm 0.00 in0.0 mm
10:04 PM 32.0°F0.0°C 29.7°F-1.3°C 91% 6.0 mph SW9.7 kmh SW 10.0 mph16.1 kmh 30.21 in1023.0 mb 0.00 in0.0 mm 0.00 in0.0 mm 0.00 in0.0 mm
10:10 PM 32.0°F0.0°C 29.7°F-1.3°C 91% 7.0 mph SW11.3 kmh SW 9.0 mph14.5 kmh 30.21 in1023.0 mb 0.00 in0.0 mm 0.00 in0.0 mm 0.00 in0.0 mm
10:15 PM 32.1°F0.1°C 29.8°F-1.2°C 91% 8.0 mph SW12.9 kmh SW 10.0 mph16.1 kmh 30.20 in1022.7 mb 0.00 in0.0 mm 0.00 in0.0 mm 0.00 in0.0 mm
10:20 PM 32.1°F0.1°C 29.8°F-1.2°C 91% 6.0 mph SW9.7 kmh SW 9.0 mph14.5 kmh 30.20 in1022.7 mb 0.00 in0.0 mm 0.00 in0.0 mm 0.00 in0.0 mm
10:25 PM 32.1°F0.1°C 29.8°F-1.2°C 91% 7.0 mph SW11.3 kmh SW 9.0 mph14.5 kmh 30.20 in1022.7 mb 0.00 in0.0 mm 0.00 in0.0 mm 0.00 in0.0 mm
10:30 PM 32.2°F0.1°C 29.9°F-1.2°C 91% 2.0 mph SW3.2 kmh SW 9.0 mph14.5 kmh 30.20 in1022.7 mb 0.00 in0.0 mm 0.00 in0.0 mm 0.00 in0.0 mm
10:35 PM 32.2°F0.1°C 29.9°F-1.2°C 91% 6.0 mph SW9.7 kmh SW 12.0 mph19.3 kmh 30.20 in1022.7 mb 0.00 in0.0 mm 0.00 in0.0 mm 0.00 in0.0 mm
10:40 PM 32.3°F0.2°C 30.0°F-1.1°C 91% 9.0 mph SW14.5 kmh SW 11.0 mph17.7 kmh 30.21 in1023.0 mb 0.00 in0.0 mm 0.00 in0.0 mm 0.00 in0.0 mm
10:45 PM 32.3°F0.2°C 30.2°F-1.0°C 92% 7.0 mph SW11.3 kmh SW 10.0 mph16.1 kmh 30.21 in1023.0 mb 0.00 in0.0 mm 0.00 in0.0 mm 0.00 in0.0 mm
10:50 PM 32.4°F0.2°C 30.3°F-0.9°C 92% 12.0 mph WSW19.3 kmh WSW 12.0 mph19.3 kmh 30.21 in1023.0 mb 0.00 in0.0 mm 0.00 in0.0 mm 0.00 in0.0 mm
10:55 PM 32.4°F0.2°C 30.3°F-0.9°C 92% 3.0 mph SW4.8 kmh SW 6.0 mph9.7 kmh 30.21 in1023.0 mb 0.00 in0.0 mm 0.00 in0.0 mm 0.00 in0.0 mm
11:00 PM 32.4°F0.2°C 30.3°F-0.9°C 92% 4.0 mph WSW6.4 kmh WSW 12.0 mph19.3 kmh 30.20 in1022.7 mb 0.00 in0.0 mm 0.00 in0.0 mm 0.00 in0.0 mm
11:05 PM 32.4°F0.2°C 30.3°F-0.9°C 92% 6.0 mph SW9.7 kmh SW 11.0 mph17.7 kmh 30.20 in1022.7 mb 0.00 in0.0 mm 0.00 in0.0 mm 0.00 in0.0 mm
11:09 PM 32.5°F0.3°C 30.4°F-0.9°C 92% 5.0 mph SW8.0 kmh SW 10.0 mph16.1 kmh 30.20 in1022.7 mb 0.00 in0.0 mm 0.00 in0.0 mm 0.00 in0.0 mm
11:20 PM 32.5°F0.3°C 30.4°F-0.9°C 92% 5.0 mph SW8.0 kmh SW 8.0 mph12.9 kmh 30.20 in1022.7 mb 0.00 in0.0 mm 0.00 in0.0 mm 0.00 in0.0 mm
11:24 PM 32.5°F0.3°C 30.4°F-0.9°C 92% 5.0 mph WSW8.0 kmh WSW 13.0 mph20.9 kmh 30.20 in1022.7 mb 0.00 in0.0 mm 0.00 in0.0 mm 0.00 in0.0 mm
11:30 PM 32.5°F0.3°C 30.4°F-0.9°C 92% 7.0 mph SW11.3 kmh SW 10.0 mph16.1 kmh 30.20 in1022.7 mb 0.00 in0.0 mm 0.00 in0.0 mm 0.00 in0.0 mm
11:35 PM 32.6°F0.3°C 30.5°F-0.8°C 92% 4.0 mph WSW6.4 kmh WSW 7.0 mph11.3 kmh 30.20 in1022.7 mb 0.00 in0.0 mm 0.00 in0.0 mm 0.00 in0.0 mm
11:40 PM 32.6°F0.3°C 30.5°F-0.8°C 92% 3.0 mph SW4.8 kmh SW 6.0 mph9.7 kmh 30.20 in1022.7 mb 0.00 in0.0 mm 0.00 in0.0 mm 0.00 in0.0 mm
11:45 PM 32.6°F0.3°C 30.5°F-0.8°C 92% 3.0 mph WSW4.8 kmh WSW 8.0 mph12.9 kmh 30.20 in1022.7 mb 0.00 in0.0 mm 0.00 in0.0 mm 0.00 in0.0 mm
11:50 PM 32.6°F0.3°C 30.5°F-0.8°C 92% 4.0 mph SW6.4 kmh SW 8.0 mph12.9 kmh 30.20 in1022.7 mb 0.00 in0.0 mm 0.00 in0.0 mm 0.00 in0.0 mm
11:54 PM 32.7°F0.4°C 30.6°F-0.8°C 92% 6.0 mph SW9.7 kmh SW 7.0 mph11.3 kmh 30.20 in1022.7 mb 0.00 in0.0 mm 0.00 in0.0 mm 0.00 in0.0 mm